Time;durP1;ratioP1;P1;durP2;ratioP2;P2;SDS_P1;SDS_P2;PMS_P1;PMS_P2;Temp;Humidity;BMP_temperature;BMP_pressure;BME280_temperature;BME280_humidity;BME280_pressure;Samples;Min_cycle;Max_cycle;Signal;HPM_P1;HPM_P2
2021/05/12 00:00:14;;;;;;;2.35;0.65;;;14.20;95.20;14.30;99537.00;;;;341576;28;84753;-89
2021/05/12 00:00:26;;;;;;;1.63;0.60;;;14.20;95.10;14.40;99527.00;;;;339639;28;91018;-89
2021/05/12 00:00:39;;;;;;;1.85;0.68;;;14.20;95.10;14.50;99528.00;;;;341529;28;83564;-90
2021/05/12 00:00:51;;;;;;;2.40;0.77;;;14.20;95.10;14.60;99533.00;;;;340321;28;92636;-90
2021/05/12 00:01:03;;;;;;;3.45;1.00;;;14.20;95.00;14.60;99528.00;;;;342937;28;84647;-90
2021/05/12 00:01:15;;;;;;;4.05;1.00;;;14.20;94.90;14.60;99534.00;;;;342442;28;91560;-90
2021/05/12 00:01:27;;;;;;;2.72;0.93;;;14.30;94.80;14.60;99533.00;;;;341421;28;83894;-90
2021/05/12 00:01:39;;;;;;;1.70;0.70;;;14.30;94.70;14.40;99539.00;;;;342622;28;90670;-89
2021/05/12 00:01:51;;;;;;;1.67;0.70;;;14.30;94.60;14.40;99527.00;;;;342936;28;85088;-89
2021/05/12 00:02:03;;;;;;;1.95;0.77;;;14.30;94.80;14.40;99527.00;;;;341111;28;92112;-90
2021/05/12 00:02:15;;;;;;;2.13;0.70;;;14.30;94.60;14.40;99531.00;;;;342870;28;83546;-90
2021/05/12 00:02:27;;;;;;;2.08;0.57;;;14.30;94.60;14.30;99537.00;;;;341215;28;91892;-90
2021/05/12 00:02:39;;;;;;;2.58;0.57;;;14.30;94.70;14.40;99534.00;;;;340176;28;83839;-89
2021/05/12 00:02:51;;;;;;;3.13;0.80;;;14.20;94.60;14.30;99539.00;;;;341234;28;91579;-89
2021/05/12 00:03:03;;;;;;;2.35;0.90;;;14.20;94.60;14.30;99534.00;;;;342795;28;84586;-91
2021/05/12 00:03:15;;;;;;;2.33;0.85;;;14.20;94.60;14.40;99532.00;;;;341074;28;91862;-92
2021/05/12 00:03:27;;;;;;;1.50;0.70;;;14.20;94.60;14.40;99532.00;;;;342863;28;85182;-90
2021/05/12 00:03:39;;;;;;;2.10;0.70;;;14.20;94.70;14.20;99530.00;;;;339851;28;90960;-89
2021/05/12 00:03:51;;;;;;;2.40;0.80;;;14.20;94.70;14.30;99541.00;;;;340733;28;84205;-90
2021/05/12 00:04:04;;;;;;;1.70;0.73;;;14.20;94.70;14.40;99532.00;;;;341137;28;91863;-90
2021/05/12 00:04:16;;;;;;;1.38;0.70;;;14.20;94.60;14.10;99536.00;;;;338949;28;84728;-90
2021/05/12 00:04:28;;;;;;;1.25;0.68;;;14.20;94.60;14.20;99534.00;;;;342285;28;91064;-90
2021/05/12 00:04:39;;;;;;;1.48;0.80;;;14.20;94.70;14.40;99539.00;;;;344196;28;85569;-90
2021/05/12 00:04:51;;;;;;;1.33;0.60;;;14.20;94.60;14.50;99525.00;;;;342546;28;90915;-90
2021/05/12 00:05:05;;;;;;;2.17;0.63;;;14.20;94.70;14.50;99531.00;;;;342857;28;84933;-90
2021/05/12 00:05:19;;;;;;;2.85;0.80;;;14.30;94.70;14.50;99532.00;;;;341050;28;92250;-90
2021/05/12 00:05:31;;;;;;;2.88;0.82;;;14.30;94.80;14.50;99530.00;;;;340234;28;84757;-90
2021/05/12 00:05:43;;;;;;;2.60;0.60;;;14.30;95.00;14.60;99536.00;;;;341109;28;92119;-90
2021/05/12 00:05:57;;;;;;;2.30;0.60;;;14.30;94.70;14.40;99534.00;;;;341248;28;88993;-90
2021/05/12 00:06:10;;;;;;;1.88;0.60;;;14.30;94.60;14.40;99538.00;;;;342549;28;91921;-90
2021/05/12 00:06:22;;;;;;;1.70;0.50;;;14.30;94.50;14.50;99536.00;;;;339648;28;83419;-90
2021/05/12 00:06:34;;;;;;;1.92;0.70;;;14.30;94.50;14.50;99523.00;;;;341272;28;91806;-90
2021/05/12 00:06:46;;;;;;;1.95;0.60;;;14.30;94.50;14.50;99529.00;;;;341671;28;84798;-89
2021/05/12 00:06:58;;;;;;;1.73;0.60;;;14.30;94.50;14.50;99525.00;;;;343936;28;90559;-90
2021/05/12 00:07:10;;;;;;;2.08;0.73;;;14.30;94.40;14.50;99537.00;;;;342807;28;85229;-89
2021/05/12 00:07:22;;;;;;;1.40;0.50;;;14.30;94.40;14.60;99536.00;;;;339824;28;92414;-89
2021/05/12 00:07:34;;;;;;;2.47;0.50;;;14.30;94.30;14.50;99531.00;;;;343090;28;83506;-89
2021/05/12 00:07:46;;;;;;;2.15;0.45;;;14.30;94.30;14.30;99525.00;;;;340926;28;91107;-91
2021/05/12 00:07:58;;;;;;;1.77;0.65;;;14.30;94.30;14.20;99526.00;;;;342826;28;84454;-90
2021/05/12 00:08:10;;;;;;;1.73;0.75;;;14.30;94.40;14.10;99526.00;;;;342659;28;90393;-90
2021/05/12 00:08:23;;;;;;;1.63;0.68;;;14.30;94.40;14.20;99532.00;;;;341280;28;83974;-91
2021/05/12 00:08:35;;;;;;;1.83;0.68;;;14.30;94.70;14.20;99540.00;;;;342573;28;91602;-90
2021/05/12 00:08:47;;;;;;;3.08;0.90;;;14.30;94.50;14.20;99529.00;;;;341388;28;83825;-91
2021/05/12 00:08:59;;;;;;;3.03;0.90;;;14.30;94.50;14.20;99538.00;;;;340863;28;92319;-90
2021/05/12 00:09:11;;;;;;;2.63;0.77;;;14.20;94.70;14.20;99528.00;;;;345574;28;83706;-90
2021/05/12 00:09:23;;;;;;;1.77;0.50;;;14.20;94.50;14.30;99531.00;;;;342762;28;92048;-90
2021/05/12 00:09:35;;;;;;;1.90;0.50;;;14.20;94.50;14.30;99531.00;;;;342913;28;83458;-90
2021/05/12 00:09:47;;;;;;;1.88;0.50;;;14.20;94.50;14.20;99533.00;;;;341185;28;92078;-90
2021/05/12 00:09:59;;;;;;;1.35;0.40;;;14.20;94.50;14.00;99537.00;;;;342927;28;83358;-90
2021/05/12 00:10:11;;;;;;;1.77;0.52;;;14.20;94.80;14.30;99527.00;;;;343900;28;93251;-90
2021/05/12 00:10:23;;;;;;;1.83;0.68;;;14.20;94.60;14.40;99534.00;;;;342904;28;83832;-90
2021/05/12 00:10:35;;;;;;;1.42;0.50;;;14.20;94.60;14.40;99536.00;;;;342565;28;90837;-90
2021/05/12 00:10:47;;;;;;;1.55;0.60;;;14.20;94.60;14.50;99531.00;;;;340118;28;83380;-90
2021/05/12 00:10:59;;;;;;;2.28;0.60;;;14.20;94.60;14.40;99535.00;;;;341178;28;92216;-90
2021/05/12 00:11:11;;;;;;;2.40;0.80;;;14.20;94.60;14.50;99532.00;;;;340290;28;83967;-89
2021/05/12 00:11:23;;;;;;;4.38;0.80;;;14.20;94.60;14.50;99531.00;;;;341255;28;90250;-89
2021/05/12 00:11:35;;;;;;;4.30;0.73;;;14.30;94.60;14.40;99528.00;;;;341655;28;84839;-90
2021/05/12 00:11:47;;;;;;;3.85;0.55;;;14.30;94.60;14.40;99530.00;;;;340801;28;92307;-90
2021/05/12 00:11:59;;;;;;;2.63;0.60;;;14.30;94.60;14.40;99526.00;;;;343013;28;83623;-89
2021/05/12 00:12:11;;;;;;;2.10;0.60;;;14.20;94.60;14.40;99525.00;;;;342509;28;93035;-90
2021/05/12 00:12:23;;;;;;;1.52;0.50;;;14.20;94.50;14.40;99533.00;;;;341487;28;83745;-90
2021/05/12 00:12:35;;;;;;;1.42;0.50;;;14.30;94.60;14.40;99527.00;;;;339866;28;92014;-89
2021/05/12 00:12:47;;;;;;;1.70;0.60;;;14.30;94.60;14.40;99532.00;;;;341492;28;84713;-90
2021/05/12 00:12:59;;;;;;;2.10;0.68;;;14.20;94.60;14.40;99529.00;;;;340999;28;92104;-90
2021/05/12 00:13:11;;;;;;;2.08;0.60;;;14.20;94.60;14.40;99529.00;;;;341532;28;85022;-90
2021/05/12 00:13:23;;;;;;;1.80;0.60;;;14.20;94.90;14.40;99523.00;;;;345284;28;90645;-90
2021/05/12 00:13:35;;;;;;;1.60;0.57;;;14.20;94.60;14.30;99533.00;;;;343015;28;84579;-90
2021/05/12 00:13:47;;;;;;;1.70;0.50;;;14.20;94.60;14.40;99532.00;;;;342483;28;92747;-90
2021/05/12 00:13:59;;;;;;;1.35;0.50;;;14.20;94.60;14.30;99521.00;;;;341527;28;85354;-90
2021/05/12 00:14:11;;;;;;;1.88;0.55;;;14.20;94.60;14.10;99525.00;;;;341191;28;91995;-90
2021/05/12 00:14:23;;;;;;;2.30;0.60;;;14.20;94.60;14.00;99526.00;;;;342855;28;85025;-90
2021/05/12 00:14:38;;;;;;;2.28;0.60;;;14.20;94.70;14.00;99532.00;;;;341226;28;91707;-90
2021/05/12 00:14:50;;;;;;;1.88;0.50;;;14.20;94.70;14.10;99530.00;;;;343900;28;84786;-90
2021/05/12 00:15:09;;;;;;;1.77;0.60;;;14.20;94.80;14.30;99524.00;;;;340142;28;90999;-91
2021/05/12 00:15:23;;;;;;;1.85;0.63;;;14.20;94.80;14.40;99514.00;;;;341340;28;84982;-90
2021/05/12 00:15:35;;;;;;;1.90;0.70;;;14.20;94.80;14.30;99526.00;;;;339933;28;90738;-90
2021/05/12 00:15:47;;;;;;;2.13;0.73;;;14.20;94.80;14.10;99532.00;;;;342680;28;83493;-89
2021/05/12 00:15:58;;;;;;;2.00;0.75;;;14.20;94.90;14.30;99525.00;;;;341112;28;91112;-90
2021/05/12 00:16:10;;;;;;;1.33;0.60;;;14.20;94.90;14.40;99530.00;;;;344314;28;85049;-90
2021/05/12 00:16:23;;;;;;;1.33;0.63;;;14.20;94.90;14.30;99520.00;;;;342403;28;91738;-90
2021/05/12 00:16:35;;;;;;;2.00;0.60;;;14.20;94.90;14.30;99530.00;;;;341629;28;84758;-90
2021/05/12 00:16:47;;;;;;;2.55;0.80;;;14.20;94.90;14.20;99523.00;;;;339833;28;91056;-90
2021/05/12 00:17:00;;;;;;;2.10;0.68;;;14.20;95.00;14.20;99527.00;;;;341512;28;85403;-90
2021/05/12 00:17:17;;;;;;;2.40;0.82;;;14.20;95.00;14.20;99529.00;;;;341268;28;92650;-90
2021/05/12 00:17:30;;;;;;;2.92;0.70;;;14.20;95.00;14.40;99525.00;;;;341595;28;83549;-90
2021/05/12 00:17:44;;;;;;;2.50;0.60;;;14.20;95.00;14.10;99524.00;;;;341256;28;91914;-90
2021/05/12 00:17:56;;;;;;;2.92;0.80;;;14.20;95.00;14.30;99528.00;;;;338731;28;82454;-90
2021/05/12 00:18:19;;;;;;;1.63;0.60;;;14.20;95.00;14.50;99524.00;;;;339558;28;92538;-90
2021/05/12 00:18:41;;;;;;;1.33;0.45;;;14.20;95.20;14.40;99522.00;;;;341514;28;85820;-90
2021/05/12 00:18:53;;;;;;;1.58;0.70;;;14.20;95.00;14.30;99530.00;;;;343270;28;92139;-89
2021/05/12 00:19:05;;;;;;;1.42;0.70;;;14.20;94.90;14.40;99521.00;;;;342899;28;83376;-90
2021/05/12 00:19:19;;;;;;;1.13;0.50;;;14.20;94.80;14.30;99521.00;;;;341186;28;91858;-90
2021/05/12 00:19:34;;;;;;;1.88;0.68;;;14.20;94.80;14.40;99521.00;;;;342886;28;83784;-90
2021/05/12 00:19:57;;;;;;;4.55;0.80;;;14.20;94.80;14.30;99516.00;;;;342472;28;91673;-91
2021/05/12 00:20:11;;;;;;;2.20;0.52;;;14.20;94.70;14.20;99524.00;;;;340174;28;85402;-90
2021/05/12 00:20:26;;;;;;;1.40;0.57;;;14.10;94.60;14.00;99522.00;;;;342562;28;92360;-90
2021/05/12 00:20:40;;;;;;;1.60;0.60;;;14.10;94.60;14.10;99521.00;;;;342827;28;84041;-90
2021/05/12 00:20:52;;;;;;;2.35;0.75;;;14.10;94.70;14.20;99519.00;;;;340725;28;92356;-90
2021/05/12 00:21:06;;;;;;;2.40;0.70;;;14.10;94.70;14.10;99519.00;;;;342038;28;83524;-90
2021/05/12 00:21:30;;;;;;;2.20;0.68;;;14.10;94.80;14.10;99521.00;;;;341174;28;91983;-90
2021/05/12 00:21:47;;;;;;;1.45;0.63;;;14.10;94.80;14.20;99520.00;;;;338887;28;83644;-90
2021/05/12 00:22:44;;;;;;;2.25;0.57;;;14.10;94.70;14.00;99524.00;;;;338864;28;84224;-91
2021/05/12 00:23:02;;;;;;;2.25;0.77;;;14.10;94.70;14.20;99523.00;;;;341258;28;91002;-90
2021/05/12 00:23:26;;;;;;;1.52;0.50;;;14.10;94.80;14.20;99520.00;;;;341344;28;84208;-90
2021/05/12 00:23:44;;;;;;;2.72;0.70;;;14.10;94.70;14.20;99521.00;;;;341174;28;92266;-90
2021/05/12 00:24:00;;;;;;;3.15;0.60;;;14.10;95.10;14.00;99518.00;;;;343976;28;83357;-90
2021/05/12 00:24:12;;;;;;;2.63;0.60;;;14.10;94.80;13.70;99526.00;;;;341167;28;91184;-90
2021/05/12 00:24:24;;;;;;;2.70;0.80;;;14.10;94.80;13.60;99525.00;;;;341407;28;84045;-90
2021/05/12 00:24:39;;;;;;;2.70;0.70;;;14.10;94.70;13.60;99516.00;;;;338444;28;93559;-90
2021/05/12 00:24:51;;;;;;;2.20;0.50;;;14.10;94.80;13.80;99510.00;;;;344024;28;83118;-90
2021/05/12 00:25:06;;;;;;;2.00;0.43;;;14.00;95.00;14.10;99520.00;;;;341065;28;91076;-90
2021/05/12 00:25:19;;;;;;;1.80;0.52;;;14.00;94.80;14.00;99518.00;;;;338887;28;84320;-90
2021/05/12 00:25:31;;;;;;;1.52;0.70;;;14.10;94.90;13.90;99512.00;;;;339891;28;91934;-90
2021/05/12 00:25:43;;;;;;;1.73;0.73;;;14.10;94.90;13.90;99517.00;;;;341494;28;84485;-90
2021/05/12 00:25:55;;;;;;;2.90;0.68;;;14.00;95.00;14.00;99524.00;;;;339883;28;90693;-90
2021/05/12 00:26:07;;;;;;;2.95;0.55;;;14.00;94.90;13.90;99517.00;;;;338969;28;83223;-90
2021/05/12 00:26:19;;;;;;;1.63;0.52;;;14.00;94.90;13.80;99515.00;;;;342140;28;91539;-90
2021/05/12 00:26:40;;;;;;;1.50;0.60;;;14.00;95.20;13.70;99520.00;;;;340149;28;85296;-90
2021/05/12 00:26:52;;;;;;;2.00;0.55;;;14.00;95.00;13.90;99517.00;;;;339347;28;93245;-90
2021/05/12 00:27:05;;;;;;;1.40;0.45;;;14.00;94.90;14.00;99506.00;;;;339304;28;84138;-90
2021/05/12 00:27:17;;;;;;;1.67;0.45;;;13.90;94.90;14.10;99518.00;;;;340747;28;90799;-90
2021/05/12 00:27:29;;;;;;;1.48;0.50;;;14.00;94.90;14.00;99524.00;;;;341460;28;83501;-90
2021/05/12 00:27:41;;;;;;;1.90;0.70;;;13.90;94.90;14.00;99512.00;;;;339854;28;90535;-90
2021/05/12 00:27:53;;;;;;;1.63;0.63;;;13.90;94.90;14.10;99521.00;;;;342121;28;83777;-89
2021/05/12 00:28:07;;;;;;;1.73;0.60;;;13.90;94.90;14.00;99520.00;;;;343964;28;91828;-90
2021/05/12 00:28:19;;;;;;;1.75;0.60;;;13.90;94.90;14.10;99518.00;;;;341608;28;85449;-90
2021/05/12 00:28:31;;;;;;;2.40;0.65;;;14.00;94.90;13.80;99512.00;;;;343637;28;90946;-91
2021/05/12 00:28:43;;;;;;;2.38;0.80;;;14.00;94.80;13.80;99511.00;;;;342930;28;85260;-90
2021/05/12 00:28:55;;;;;;;2.17;0.70;;;13.90;94.70;14.00;99518.00;;;;341226;28;92569;-90
2021/05/12 00:29:17;;;;;;;1.52;0.60;;;14.00;94.80;14.10;99514.00;;;;341547;28;85006;-90
2021/05/12 00:29:29;;;;;;;2.03;0.60;;;13.90;94.80;14.10;99516.00;;;;342360;28;91020;-90
2021/05/12 00:29:40;;;;;;;1.88;0.60;;;14.00;94.90;14.20;99512.00;;;;341466;28;83726;-89
2021/05/12 00:29:52;;;;;;;1.65;0.40;;;14.00;94.80;14.20;99507.00;;;;340381;28;91583;-90
2021/05/12 00:30:11;;;;;;;1.58;0.40;;;14.00;94.80;14.30;99510.00;;;;344171;28;84711;-89
2021/05/12 00:30:23;;;;;;;2.50;0.60;;;14.00;94.80;14.40;99509.00;;;;342391;28;91560;-90
2021/05/12 00:30:35;;;;;;;2.75;0.60;;;14.00;94.80;14.20;99512.00;;;;341598;28;83563;-90
2021/05/12 00:30:47;;;;;;;1.95;0.40;;;14.00;94.80;14.20;99510.00;;;;341284;28;91092;-90
2021/05/12 00:30:59;;;;;;;1.45;0.40;;;14.00;94.80;14.20;99512.00;;;;340188;28;83766;-90
2021/05/12 00:31:11;;;;;;;0.95;0.40;;;14.10;94.80;14.10;99509.00;;;;339496;28;92359;-91
2021/05/12 00:31:23;;;;;;;1.30;0.40;;;14.00;94.80;13.90;99512.00;;;;341640;28;83720;-90
2021/05/12 00:31:35;;;;;;;1.58;0.45;;;14.00;94.90;13.90;99505.00;;;;339902;28;90719;-90
2021/05/12 00:31:47;;;;;;;2.00;0.50;;;14.00;95.20;14.10;99512.00;;;;341331;28;83509;-90
2021/05/12 00:31:59;;;;;;;1.80;0.50;;;14.00;95.00;14.10;99507.00;;;;341215;28;92139;-91
2021/05/12 00:32:11;;;;;;;1.67;0.70;;;14.00;95.10;14.20;99509.00;;;;341599;28;84050;-90
2021/05/12 00:32:23;;;;;;;1.45;0.70;;;14.00;95.00;14.10;99504.00;;;;343835;28;92457;-90
2021/05/12 00:32:35;;;;;;;1.17;0.50;;;14.00;95.00;14.00;99507.00;;;;342957;28;84245;-91
2021/05/12 00:32:47;;;;;;;1.40;0.40;;;14.00;95.00;14.00;99510.00;;;;343538;28;91799;-91
2021/05/12 00:32:59;;;;;;;1.42;0.30;;;14.00;95.00;13.80;99512.00;;;;341313;28;85044;-92
2021/05/12 00:33:13;;;;;;;1.60;0.50;;;14.00;95.00;13.80;99510.00;;;;342476;28;93680;-90
2021/05/12 00:33:25;;;;;;;2.13;0.80;;;14.00;94.90;13.70;99511.00;;;;345547;28;85010;-90
2021/05/12 00:33:37;;;;;;;2.63;0.55;;;14.00;95.00;13.70;99508.00;;;;342418;28;91300;-90
2021/05/12 00:33:49;;;;;;;2.90;0.43;;;14.00;95.00;13.60;99508.00;;;;342706;28;83591;-90
2021/05/12 00:34:01;;;;;;;1.77;0.40;;;14.00;95.00;13.70;99508.00;;;;342435;28;90198;-90
2021/05/12 00:34:13;;;;;;;1.83;0.45;;;13.90;95.30;13.70;99513.00;;;;341671;28;83891;-91
2021/05/12 00:34:25;;;;;;;1.85;0.55;;;14.00;95.00;13.80;99509.00;;;;342707;28;92200;-90
2021/05/12 00:34:36;;;;;;;1.85;0.70;;;14.00;95.10;13.80;99511.00;;;;342089;28;83331;-90
2021/05/12 00:34:48;;;;;;;1.50;0.70;;;13.90;95.10;13.80;99509.00;;;;344506;28;91058;-90
2021/05/12 00:35:00;;;;;;;2.42;0.60;;;13.90;95.10;13.80;99514.00;;;;342066;28;84993;-91
2021/05/12 00:35:13;;;;;;;3.30;0.70;;;13.90;95.10;13.80;99506.00;;;;340324;28;92884;-90
2021/05/12 00:35:25;;;;;;;3.70;0.52;;;13.90;95.20;13.80;99507.00;;;;342098;28;84325;-90
2021/05/12 00:35:37;;;;;;;2.35;0.45;;;13.90;95.30;13.80;99509.00;;;;341685;28;90334;-91
2021/05/12 00:35:49;;;;;;;2.05;0.50;;;13.80;95.30;13.80;99507.00;;;;343381;28;83618;-90
2021/05/12 00:36:00;;;;;;;2.80;0.90;;;13.80;95.40;13.70;99507.00;;;;341545;28;91716;-90
2021/05/12 00:36:12;;;;;;;2.80;0.90;;;13.80;95.30;13.70;99511.00;;;;342193;28;83749;-90
2021/05/12 00:36:25;;;;;;;3.17;1.00;;;13.80;95.40;13.60;99505.00;;;;340120;28;91645;-91
2021/05/12 00:36:37;;;;;;;2.38;0.60;;;13.80;95.40;13.60;99507.00;;;;344826;28;83426;-90
2021/05/12 00:36:49;;;;;;;1.70;0.50;;;13.80;95.40;13.60;99501.00;;;;342934;28;91320;-90
2021/05/12 00:37:02;;;;;;;3.78;0.73;;;13.80;95.40;13.60;99515.00;;;;342166;28;84463;-90
2021/05/12 00:37:14;;;;;;;3.40;0.70;;;13.80;95.50;13.60;99504.00;;;;339186;28;92431;-90
2021/05/12 00:37:26;;;;;;;3.55;0.70;;;13.80;95.40;13.60;99507.00;;;;341019;28;84167;-89
2021/05/12 00:37:38;;;;;;;1.52;0.57;;;13.80;95.40;13.60;99510.00;;;;341973;28;90946;-90
2021/05/12 00:37:51;;;;;;;1.75;0.60;;;13.80;95.40;13.60;99507.00;;;;342338;28;83751;-90
2021/05/12 00:38:03;;;;;;;1.67;0.52;;;13.70;95.40;13.70;99507.00;;;;342011;28;90720;-89
2021/05/12 00:38:14;;;;;;;1.95;0.50;;;13.70;95.40;13.80;99498.00;;;;343721;28;85353;-90
2021/05/12 00:38:27;;;;;;;1.95;0.47;;;13.70;95.30;13.80;99500.00;;;;341859;28;91844;-90
2021/05/12 00:38:38;;;;;;;1.30;0.40;;;13.80;95.30;13.80;99509.00;;;;342077;28;83869;-90
2021/05/12 00:38:51;;;;;;;2.72;0.63;;;13.70;95.30;13.80;99502.00;;;;341309;28;90801;-90
2021/05/12 00:39:06;;;;;;;2.88;0.70;;;13.80;95.30;13.70;99500.00;;;;342173;28;85433;-91
2021/05/12 00:39:18;;;;;;;1.83;0.60;;;13.70;95.40;13.70;99499.00;;;;344634;28;91917;-90
2021/05/12 00:39:30;;;;;;;2.30;0.60;;;13.80;95.50;13.80;99498.00;;;;339620;28;84705;-90
2021/05/12 00:39:42;;;;;;;2.53;0.70;;;13.70;95.40;13.80;99507.00;;;;341676;28;91276;-91
2021/05/12 00:39:54;;;;;;;2.13;0.73;;;13.80;95.40;13.80;99501.00;;;;343283;28;83007;-90
2021/05/12 00:40:08;;;;;;;1.58;0.70;;;13.70;95.40;13.80;99505.00;;;;344726;28;92064;-90
2021/05/12 00:40:21;;;;;;;1.48;0.60;;;13.70;95.40;13.70;99503.00;;;;343576;28;85157;-91
2021/05/12 00:40:32;;;;;;;1.67;0.60;;;13.80;95.50;13.70;99499.00;;;;343073;28;91307;-89
2021/05/12 00:40:44;;;;;;;2.67;0.63;;;13.70;95.50;13.80;99500.00;;;;343420;28;84977;-91
2021/05/12 00:40:56;;;;;;;2.50;0.55;;;13.80;95.50;13.80;99499.00;;;;341681;28;91522;-90
2021/05/12 00:41:08;;;;;;;2.30;0.50;;;13.80;95.50;13.70;99499.00;;;;343259;28;85199;-90
2021/05/12 00:41:20;;;;;;;1.25;0.50;;;13.80;95.50;13.70;99497.00;;;;341377;28;92982;-89
2021/05/12 00:41:36;;;;;;;2.03;0.57;;;13.80;95.50;13.70;99502.00;;;;341745;28;84817;-90
2021/05/12 00:41:48;;;;;;;2.42;0.80;;;13.80;95.60;13.70;99497.00;;;;341599;28;91461;-89
2021/05/12 00:42:00;;;;;;;2.17;0.75;;;13.80;95.60;13.70;99503.00;;;;341586;28;85030;-89
2021/05/12 00:42:12;;;;;;;1.70;0.60;;;13.80;95.60;13.80;99502.00;;;;340130;28;91750;-90
2021/05/12 00:42:31;;;;;;;1.90;0.60;;;13.70;95.60;13.70;99500.00;;;;340268;28;84827;-91
2021/05/12 00:42:43;;;;;;;2.55;0.60;;;13.70;95.60;13.70;99505.00;;;;341447;28;91719;-90
2021/05/12 00:42:55;;;;;;;2.63;0.60;;;13.80;95.70;13.70;99495.00;;;;344336;28;84550;-90
2021/05/12 00:43:06;;;;;;;1.80;0.40;;;13.70;95.60;13.70;99499.00;;;;340052;28;91793;-89
2021/05/12 00:43:18;;;;;;;1.67;0.40;;;13.70;95.60;13.70;99497.00;;;;342792;28;85324;-90
2021/05/12 00:43:30;;;;;;;1.73;0.50;;;13.70;95.60;13.80;99499.00;;;;341357;28;93362;-90
2021/05/12 00:43:42;;;;;;;2.00;0.50;;;13.80;95.70;14.00;99499.00;;;;344486;28;84793;-90
2021/05/12 00:43:54;;;;;;;3.17;0.47;;;13.80;95.70;14.00;99498.00;;;;341412;28;92648;-90
2021/05/12 00:44:17;;;;;;;2.30;0.40;;;13.80;95.70;14.10;99501.00;;;;345913;28;84412;-90
2021/05/12 00:44:29;;;;;;;2.50;0.60;;;13.80;95.70;14.10;99496.00;;;;345442;28;92344;-89
2021/05/12 00:44:41;;;;;;;2.53;0.55;;;13.80;95.60;14.10;99500.00;;;;343094;28;85091;-90
2021/05/12 00:44:53;;;;;;;2.10;0.60;;;13.80;95.50;14.00;99501.00;;;;342755;28;90839;-90
2021/05/12 00:45:10;;;;;;;2.75;0.68;;;13.80;95.50;14.00;99501.00;;;;341744;28;84569;-91
2021/05/12 00:45:22;;;;;;;1.90;0.55;;;13.90;95.50;14.00;99494.00;;;;340638;28;92656;-90
2021/05/12 00:45:34;;;;;;;1.75;0.45;;;13.80;95.40;14.00;99503.00;;;;340422;28;83570;-90
2021/05/12 00:45:46;;;;;;;1.80;0.40;;;13.90;95.40;13.90;99492.00;;;;341276;28;92128;-90
2021/05/12 00:45:58;;;;;;;1.77;0.40;;;13.90;95.40;13.90;99503.00;;;;338926;28;85176;-90
2021/05/12 00:46:10;;;;;;;2.03;0.52;;;13.90;95.40;13.90;99496.00;;;;340166;28;91140;-89
2021/05/12 00:46:22;;;;;;;2.13;0.57;;;13.80;95.70;13.80;99500.00;;;;343024;28;84786;-90
2021/05/12 00:46:42;;;;;;;2.05;0.40;;;13.80;95.40;13.70;99502.00;;;;341368;28;90917;-90
2021/05/12 00:46:54;;;;;;;1.38;0.43;;;13.90;95.50;13.70;99503.00;;;;340389;28;85353;-90
2021/05/12 00:47:07;;;;;;;1.15;0.40;;;13.80;95.50;13.60;99495.00;;;;340079;28;90889;-90
2021/05/12 00:47:30;;;;;;;1.15;0.40;;;13.80;95.50;13.60;99494.00;;;;344495;28;83784;-90
2021/05/12 00:47:42;;;;;;;1.80;0.65;;;13.80;95.50;13.60;99503.00;;;;341334;28;92197;-90
2021/05/12 00:47:54;;;;;;;1.95;0.65;;;13.80;95.50;13.90;99497.00;;;;340055;28;85030;-90
2021/05/12 00:48:07;;;;;;;2.60;0.70;;;13.80;95.60;14.00;99499.00;;;;340294;28;92321;-89
2021/05/12 00:48:18;;;;;;;2.58;0.70;;;13.90;95.60;14.00;99502.00;;;;340080;28;83860;-90
2021/05/12 00:48:30;;;;;;;2.60;0.70;;;13.90;95.60;14.00;99505.00;;;;341369;28;91197;-90
2021/05/12 00:48:42;;;;;;;1.90;0.50;;;13.90;95.60;14.00;99504.00;;;;341763;28;84413;-90
2021/05/12 00:48:54;;;;;;;2.13;0.50;;;13.90;95.50;13.90;99493.00;;;;341247;28;91959;-91
2021/05/12 00:49:06;;;;;;;1.30;0.40;;;13.90;95.50;13.90;99502.00;;;;340451;28;84444;-90
2021/05/12 00:49:19;;;;;;;1.17;0.60;;;13.90;95.50;13.90;99507.00;;;;341431;28;90900;-90
2021/05/12 00:49:32;;;;;;;1.65;0.60;;;13.90;95.50;13.80;99499.00;;;;344593;28;84534;-90
2021/05/12 00:49:44;;;;;;;2.53;0.40;;;13.90;95.50;13.80;99500.00;;;;340379;28;90166;-90
2021/05/12 00:49:56;;;;;;;3.05;0.60;;;13.90;95.50;14.00;99505.00;;;;343264;28;83620;-90
2021/05/12 00:50:09;;;;;;;2.80;0.70;;;13.90;95.50;14.00;99506.00;;;;341494;28;92081;-89
2021/05/12 00:50:23;;;;;;;1.83;0.60;;;13.90;95.50;13.90;99503.00;;;;341885;28;84422;-90
2021/05/12 00:50:35;;;;;;;1.60;0.45;;;13.90;95.60;13.80;99496.00;;;;338880;28;90602;-90
2021/05/12 00:50:46;;;;;;;1.65;0.40;;;13.90;95.70;13.80;99506.00;;;;340383;28;83907;-90
2021/05/12 00:50:58;;;;;;;1.75;0.47;;;13.90;95.70;13.70;99497.00;;;;341845;28;92437;-90
2021/05/12 00:51:10;;;;;;;1.88;0.60;;;13.90;95.60;13.70;99500.00;;;;344738;28;83291;-90
2021/05/12 00:51:22;;;;;;;2.10;0.57;;;13.90;95.60;13.70;99493.00;;;;341661;28;91184;-90
2021/05/12 00:51:34;;;;;;;1.95;0.40;;;13.90;95.60;13.70;99492.00;;;;342118;28;83289;-90
2021/05/12 00:51:46;;;;;;;1.30;0.50;;;13.90;95.60;13.80;99500.00;;;;342859;28;91058;-90
2021/05/12 00:51:58;;;;;;;1.20;0.30;;;13.90;95.60;13.80;99496.00;;;;343186;28;85516;-90
2021/05/12 00:52:10;;;;;;;1.20;0.35;;;13.90;95.60;13.80;99493.00;;;;341348;28;92517;-90
2021/05/12 00:52:23;;;;;;;1.58;0.40;;;13.80;95.50;13.90;99497.00;;;;343179;28;83688;-90
2021/05/12 00:52:35;;;;;;;2.13;0.50;;;13.90;95.60;13.90;99502.00;;;;341540;28;91787;-91
2021/05/12 00:52:47;;;;;;;1.83;0.60;;;13.90;95.90;13.90;99501.00;;;;343330;28;84747;-90
2021/05/12 00:53:00;;;;;;;1.85;0.70;;;13.90;95.60;14.00;99504.00;;;;341540;28;90465;-91
2021/05/12 00:53:12;;;;;;;1.73;0.70;;;13.90;95.60;13.90;99499.00;;;;344737;28;83986;-90
2021/05/12 00:53:24;;;;;;;1.85;0.68;;;13.90;95.60;13.90;99501.00;;;;340282;28;91865;-90
2021/05/12 00:53:36;;;;;;;1.98;0.73;;;13.90;95.60;13.80;99493.00;;;;341865;28;84595;-91
2021/05/12 00:53:48;;;;;;;2.25;0.80;;;13.90;95.70;13.70;99501.00;;;;340313;28;90738;-90
2021/05/12 00:54:00;;;;;;;2.50;0.75;;;13.90;95.70;13.70;99494.00;;;;341687;28;83015;-91
2021/05/12 00:54:12;;;;;;;2.28;0.60;;;13.90;95.70;13.80;99484.00;;;;340268;28;92601;-89
2021/05/12 00:54:24;;;;;;;1.85;0.60;;;13.80;95.70;13.80;99495.00;;;;341889;28;84067;-91
2021/05/12 00:54:36;;;;;;;1.75;0.40;;;13.80;95.70;13.90;99498.00;;;;340390;28;90585;-90
2021/05/12 00:54:49;;;;;;;2.33;0.40;;;13.90;95.70;13.80;99494.00;;;;343149;28;82764;-89
2021/05/12 00:55:01;;;;;;;2.08;0.40;;;13.80;95.70;13.80;99501.00;;;;341639;28;90979;-90
2021/05/12 00:55:13;;;;;;;1.98;0.45;;;13.80;95.70;13.80;99497.00;;;;343567;28;83427;-90
2021/05/12 00:55:25;;;;;;;1.30;0.50;;;13.80;95.70;13.90;99498.00;;;;344505;28;91266;-91
2021/05/12 00:55:38;;;;;;;2.08;0.60;;;13.80;95.70;13.80;99488.00;;;;341872;28;84092;-90
2021/05/12 00:55:50;;;;;;;4.05;0.80;;;13.80;95.80;13.80;99492.00;;;;341611;28;91045;-90
2021/05/12 00:56:03;;;;;;;5.30;0.75;;;13.80;95.70;13.80;99493.00;;;;344588;28;83819;-90
2021/05/12 00:56:15;;;;;;;3.55;0.55;;;13.80;95.70;14.00;99496.00;;;;341341;28;91626;-92
2021/05/12 00:56:27;;;;;;;2.67;0.63;;;13.80;95.70;14.00;99505.00;;;;343064;28;83504;-90
2021/05/12 00:56:41;;;;;;;2.47;0.75;;;13.90;95.70;14.00;99490.00;;;;340206;28;92405;-90
2021/05/12 00:56:53;;;;;;;2.67;0.80;;;13.90;95.70;14.00;99493.00;;;;341828;28;84282;-90
2021/05/12 00:57:06;;;;;;;2.10;0.60;;;13.90;95.70;13.80;99495.00;;;;343860;28;90915;-90
2021/05/12 00:57:19;;;;;;;1.40;0.40;;;13.90;95.70;13.90;99485.00;;;;343278;28;83793;-89
2021/05/12 00:57:31;;;;;;;1.20;0.52;;;13.90;95.70;14.00;99492.00;;;;343118;28;92099;-90
2021/05/12 00:57:43;;;;;;;1.13;0.50;;;13.90;95.70;14.00;99490.00;;;;342647;28;83967;-90
2021/05/12 00:57:55;;;;;;;1.85;0.45;;;13.90;95.80;14.00;99494.00;;;;344303;28;90803;-93
2021/05/12 00:58:07;;;;;;;2.88;0.50;;;13.90;95.80;14.00;99491.00;;;;342393;28;83827;-94
2021/05/12 00:58:19;;;;;;;3.63;0.77;;;13.90;95.80;13.90;99489.00;;;;344648;28;92288;-94
2021/05/12 00:58:31;;;;;;;3.40;0.80;;;13.90;95.80;13.80;99491.00;;;;343665;28;84179;-94